This is the latest recevied weather packets stored in our database for station/object DM4XI-13. If no packets are shown the sender has not sent any weather packets the latest 10 day(s).
| Time | Temp. | Humidity | Pressure | Rain* | Wind** | Luminosity | Snow |
|---|---|---|---|---|---|---|---|
| 1777882170 | 20° C | 41% | 1013.1 hPa | 0 mm | 0.45 m/s, 240° | 461 W/m² | - |
| 1777882109 | 20° C | 40% | 1013.1 hPa | 0 mm | 0.89 m/s, 211° | 457 W/m² | - |
| 1777882048 | 20° C | 39% | 1013.1 hPa | 0 mm | 0.89 m/s, 258° | 455 W/m² | - |
| 1777881987 | 20° C | 41% | 1013.1 hPa | 0 mm | 0.89 m/s, 244° | 450 W/m² | - |
| 1777881927 | 20° C | 40% | 1013.1 hPa | 0 mm | 0.89 m/s, 325° | 448 W/m² | - |
| 1777881866 | 20° C | 42% | 1013.2 hPa | 0 mm | 0 m/s | 445 W/m² | - |
| 1777881805 | 20° C | 40% | 1013 hPa | 0 mm | 1.34 m/s, 294° | 443 W/m² | - |
| 1777881744 | 20.56° C | 41% | 1013.1 hPa | 0 mm | 0.89 m/s, 218° | 437 W/m² | - |
| 1777881683 | 20.56° C | 40% | 1013 hPa | 0 mm | 0.89 m/s, 9° | 425 W/m² | - |
| 1777881622 | 20.56° C | 39% | 1013 hPa | 0 mm | 2.24 m/s, 329° | 418 W/m² | - |
| 1777881561 | 20.56° C | 41% | 1013.2 hPa | 0 mm | 0 m/s | 396 W/m² | - |
| 1777881500 | 20.56° C | 41% | 1013.2 hPa | 0 mm | 1.79 m/s, 328° | 381 W/m² | - |
| 1777881439 | 20.56° C | 40% | 1013.2 hPa | 0 mm | 1.34 m/s, 328° | 389 W/m² | - |
| 1777881378 | 20.56° C | 38% | 1013.1 hPa | 0 mm | 0.89 m/s, 227° | 405 W/m² | - |
| 1777881317 | 20.56° C | 39% | 1013 hPa | 0 mm | 0.89 m/s, 262° | 401 W/m² | - |
| 1777881256 | 20° C | 41% | 1013.2 hPa | 0 mm | 0.89 m/s, 296° | 407 W/m² | - |
| 1777881195 | 20° C | 42% | 1013.1 hPa | 0 mm | 0 m/s | 403 W/m² | - |
| 1777881134 | 20° C | 41% | 1013 hPa | 0 mm | 0.89 m/s, 284° | 408 W/m² | - |
| 1777881073 | 20° C | 41% | 1013.2 hPa | 0 mm | 0.89 m/s, 304° | 405 W/m² | - |
| 1777881012 | 20° C | 42% | 1013.1 hPa | 0 mm | 0 m/s | 395 W/m² | - |
| 1777880950 | 20° C | 42% | 1013.2 hPa | 0 mm | 0.45 m/s, 255° | 397 W/m² | - |
| 1777880890 | 19.44° C | 43% | 1013.1 hPa | 0 mm | 0.89 m/s, 292° | 400 W/m² | - |
| 1777880829 | 19.44° C | 42% | 1013.1 hPa | 0 mm | 0.89 m/s, 349° | 402 W/m² | - |
| 1777880768 | 19.44° C | 42% | 1013.1 hPa | 0 mm | 0.89 m/s, 273° | 404 W/m² | - |
| 1777880706 | 18.89° C | 45% | 1013.3 hPa | 0 mm | 0 m/s | 411 W/m² | - |
* Rain latest hour (hover to see other rain measurements)
** Current wind speed in m/s (hover to see current wind gust speed)